sensor_id;sensor_type;location;lat;lon;timestamp;P1;P2;P0
71858;PMS5003;59713;50.866;4.324;2022-10-20T00:02:43;19;16;
71858;PMS5003;59713;50.866;4.324;2022-10-20T00:05:43;16;15;
71858;PMS5003;59713;50.866;4.324;2022-10-20T00:08:43;20;17;
71858;PMS5003;59713;50.866;4.324;2022-10-20T00:17:43;17;17;
71858;PMS5003;59713;50.866;4.324;2022-10-20T00:20:43;20;16;
71858;PMS5003;59713;50.866;4.324;2022-10-20T00:23:43;21;19;
71858;PMS5003;59713;50.866;4.324;2022-10-20T00:26:43;17;15;
71858;PMS5003;59713;50.866;4.324;2022-10-20T00:29:43;21;19;
71858;PMS5003;59713;50.866;4.324;2022-10-20T00:32:43;19;17;
71858;PMS5003;59713;50.866;4.324;2022-10-20T00:35:43;16;16;
71858;PMS5003;59713;50.866;4.324;2022-10-20T00:38:43;19;18;
71858;PMS5003;59713;50.866;4.324;2022-10-20T00:41:43;17;16;
71858;PMS5003;59713;50.866;4.324;2022-10-20T00:44:48;23;19;
71858;PMS5003;59713;50.866;4.324;2022-10-20T00:47:44;22;18;
71858;PMS5003;59713;50.866;4.324;2022-10-20T00:50:45;13;13;
71858;PMS5003;59713;50.866;4.324;2022-10-20T00:53:43;18;16;
71858;PMS5003;59713;50.866;4.324;2022-10-20T00:56:43;21;18;
71858;PMS5003;59713;50.866;4.324;2022-10-20T00:59:43;19;16;
71858;PMS5003;59713;50.866;4.324;2022-10-20T01:02:43;16;15;
71858;PMS5003;59713;50.866;4.324;2022-10-20T01:05:43;22;17;
71858;PMS5003;59713;50.866;4.324;2022-10-20T01:08:43;25;20;
71858;PMS5003;59713;50.866;4.324;2022-10-20T01:11:44;21;15;
71858;PMS5003;59713;50.866;4.324;2022-10-20T01:14:45;20;16;
71858;PMS5003;59713;50.866;4.324;2022-10-20T01:17:44;18;16;
71858;PMS5003;59713;50.866;4.324;2022-10-20T01:20:49;20;16;
71858;PMS5003;59713;50.866;4.324;2022-10-20T01:23:51;22;18;
71858;PMS5003;59713;50.866;4.324;2022-10-20T01:26:51;20;18;
71858;PMS5003;59713;50.866;4.324;2022-10-20T01:29:43;17;14;
71858;PMS5003;59713;50.866;4.324;2022-10-20T01:32:50;19;16;
71858;PMS5003;59713;50.866;4.324;2022-10-20T01:38:45;15;14;
71858;PMS5003;59713;50.866;4.324;2022-10-20T01:41:45;16;16;
71858;PMS5003;59713;50.866;4.324;2022-10-20T01:44:43;15;14;
71858;PMS5003;59713;50.866;4.324;2022-10-20T01:47:43;17;17;
71858;PMS5003;59713;50.866;4.324;2022-10-20T01:50:43;19;18;
71858;PMS5003;59713;50.866;4.324;2022-10-20T01:53:43;20;18;
71858;PMS5003;59713;50.866;4.324;2022-10-20T01:56:45;21;17;
71858;PMS5003;59713;50.866;4.324;2022-10-20T01:59:46;15;15;
71858;PMS5003;59713;50.866;4.324;2022-10-20T02:02:48;19;17;
71858;PMS5003;59713;50.866;4.324;2022-10-20T02:05:45;18;15;
71858;PMS5003;59713;50.866;4.324;2022-10-20T02:08:44;17;17;
71858;PMS5003;59713;50.866;4.324;2022-10-20T02:14:43;20;18;
71858;PMS5003;59713;50.866;4.324;2022-10-20T02:17:43;17;16;
71858;PMS5003;59713;50.866;4.324;2022-10-20T02:20:44;21;18;
71858;PMS5003;59713;50.866;4.324;2022-10-20T02:23:43;16;16;
71858;PMS5003;59713;50.866;4.324;2022-10-20T02:26:43;17;16;
71858;PMS5003;59713;50.866;4.324;2022-10-20T02:29:43;16;16;
71858;PMS5003;59713;50.866;4.324;2022-10-20T02:35:47;11;11;
71858;PMS5003;59713;50.866;4.324;2022-10-20T02:38:43;19;16;
71858;PMS5003;59713;50.866;4.324;2022-10-20T02:41:43;22;18;
71858;PMS5003;59713;50.866;4.324;2022-10-20T02:44:44;18;16;
71858;PMS5003;59713;50.866;4.324;2022-10-20T02:47:43;19;19;
71858;PMS5003;59713;50.866;4.324;2022-10-20T02:50:43;16;14;
71858;PMS5003;59713;50.866;4.324;2022-10-20T02:53:43;22;18;
71858;PMS5003;59713;50.866;4.324;2022-10-20T02:56:43;19;16;
71858;PMS5003;59713;50.866;4.324;2022-10-20T02:59:43;22;19;
71858;PMS5003;59713;50.866;4.324;2022-10-20T03:02:43;17;16;
71858;PMS5003;59713;50.866;4.324;2022-10-20T03:05:43;19;18;
71858;PMS5003;59713;50.866;4.324;2022-10-20T03:08:43;17;17;
71858;PMS5003;59713;50.866;4.324;2022-10-20T03:17:43;18;16;
71858;PMS5003;59713;50.866;4.324;2022-10-20T03:20:43;26;22;
71858;PMS5003;59713;50.866;4.324;2022-10-20T03:23:43;17;15;
71858;PMS5003;59713;50.866;4.324;2022-10-20T03:26:43;20;17;
71858;PMS5003;59713;50.866;4.324;2022-10-20T03:29:43;16;16;
71858;PMS5003;59713;50.866;4.324;2022-10-20T03:32:43;17;17;
71858;PMS5003;59713;50.866;4.324;2022-10-20T03:35:43;19;18;
71858;PMS5003;59713;50.866;4.324;2022-10-20T03:38:44;21;18;
71858;PMS5003;59713;50.866;4.324;2022-10-20T03:41:43;24;20;
71858;PMS5003;59713;50.866;4.324;2022-10-20T03:44:43;21;18;
71858;PMS5003;59713;50.866;4.324;2022-10-20T03:47:43;18;17;
71858;PMS5003;59713;50.866;4.324;2022-10-20T03:50:43;20;18;
71858;PMS5003;59713;50.866;4.324;2022-10-20T03:53:43;14;14;
71858;PMS5003;59713;50.866;4.324;2022-10-20T03:56:43;24;19;
71858;PMS5003;59713;50.866;4.324;2022-10-20T03:59:43;19;18;
71858;PMS5003;59713;50.866;4.324;2022-10-20T04:02:45;20;17;
71858;PMS5003;59713;50.866;4.324;2022-10-20T04:05:43;18;18;
71858;PMS5003;59713;50.866;4.324;2022-10-20T04:08:43;19;19;
71858;PMS5003;59713;50.866;4.324;2022-10-20T04:11:43;18;18;
71858;PMS5003;59713;50.866;4.324;2022-10-20T04:14:43;17;14;
71858;PMS5003;59713;50.866;4.324;2022-10-20T04:17:43;19;19;
71858;PMS5003;59713;50.866;4.324;2022-10-20T04:20:43;18;17;
71858;PMS5003;59713;50.866;4.324;2022-10-20T04:23:43;15;14;
71858;PMS5003;59713;50.866;4.324;2022-10-20T04:26:43;18;17;
71858;PMS5003;59713;50.866;4.324;2022-10-20T04:29:45;16;16;
71858;PMS5003;59713;50.866;4.324;2022-10-20T04:32:43;21;18;
71858;PMS5003;59713;50.866;4.324;2022-10-20T04:35:43;19;15;
71858;PMS5003;59713;50.866;4.324;2022-10-20T04:38:43;20;15;
71858;PMS5003;59713;50.866;4.324;2022-10-20T04:41:43;19;17;
71858;PMS5003;59713;50.866;4.324;2022-10-20T04:44:43;24;18;
71858;PMS5003;59713;50.866;4.324;2022-10-20T04:47:43;21;16;
71858;PMS5003;59713;50.866;4.324;2022-10-20T04:50:43;12;11;
71858;PMS5003;59713;50.866;4.324;2022-10-20T04:53:43;20;17;
71858;PMS5003;59713;50.866;4.324;2022-10-20T04:56:43;12;12;
71858;PMS5003;59713;50.866;4.324;2022-10-20T04:59:43;16;15;
71858;PMS5003;59713;50.866;4.324;2022-10-20T05:02:43;18;17;
71858;PMS5003;59713;50.866;4.324;2022-10-20T05:05:43;16;16;
71858;PMS5003;59713;50.866;4.324;2022-10-20T05:08:45;15;14;
71858;PMS5003;59713;50.866;4.324;2022-10-20T05:11:43;21;18;
71858;PMS5003;59713;50.866;4.324;2022-10-20T05:14:43;18;16;
71858;PMS5003;59713;50.866;4.324;2022-10-20T05:17:43;21;20;
71858;PMS5003;59713;50.866;4.324;2022-10-20T05:20:43;15;14;
71858;PMS5003;59713;50.866;4.324;2022-10-20T05:23:43;24;20;
71858;PMS5003;59713;50.866;4.324;2022-10-20T05:26:43;21;17;
71858;PMS5003;59713;50.866;4.324;2022-10-20T05:29:43;18;18;
71858;PMS5003;59713;50.866;4.324;2022-10-20T05:32:44;11;10;
71858;PMS5003;59713;50.866;4.324;2022-10-20T05:35:43;18;16;
71858;PMS5003;59713;50.866;4.324;2022-10-20T05:38:43;14;13;
71858;PMS5003;59713;50.866;4.324;2022-10-20T05:41:43;20;17;
71858;PMS5003;59713;50.866;4.324;2022-10-20T05:44:43;18;16;
71858;PMS5003;59713;50.866;4.324;2022-10-20T05:47:43;19;18;
71858;PMS5003;59713;50.866;4.324;2022-10-20T05:50:43;20;15;
71858;PMS5003;59713;50.866;4.324;2022-10-20T05:53:43;18;18;
71858;PMS5003;59713;50.866;4.324;2022-10-20T05:56:43;15;14;
71858;PMS5003;59713;50.866;4.324;2022-10-20T05:59:43;17;17;
71858;PMS5003;59713;50.866;4.324;2022-10-20T06:02:48;16;11;
71858;PMS5003;59713;50.866;4.324;2022-10-20T06:05:43;23;19;
71858;PMS5003;59713;50.866;4.324;2022-10-20T06:08:43;21;17;
71858;PMS5003;59713;50.866;4.324;2022-10-20T06:11:44;20;17;
71858;PMS5003;59713;50.866;4.324;2022-10-20T06:14:43;23;17;
71858;PMS5003;59713;50.866;4.324;2022-10-20T06:17:45;18;16;
71858;PMS5003;59713;50.866;4.324;2022-10-20T06:26:44;15;15;
71858;PMS5003;59713;50.866;4.324;2022-10-20T06:29:43;18;16;
71858;PMS5003;59713;50.866;4.324;2022-10-20T06:32:43;14;13;
71858;PMS5003;59713;50.866;4.324;2022-10-20T06:35:43;15;12;
71858;PMS5003;59713;50.866;4.324;2022-10-20T06:38:43;13;13;
71858;PMS5003;59713;50.866;4.324;2022-10-20T06:41:45;22;17;
71858;PMS5003;59713;50.866;4.324;2022-10-20T06:44:43;21;18;
71858;PMS5003;59713;50.866;4.324;2022-10-20T06:47:43;22;14;
71858;PMS5003;59713;50.866;4.324;2022-10-20T06:50:43;16;14;
71858;PMS5003;59713;50.866;4.324;2022-10-20T06:53:44;17;17;
71858;PMS5003;59713;50.866;4.324;2022-10-20T06:56:43;15;13;
71858;PMS5003;59713;50.866;4.324;2022-10-20T06:59:43;16;14;
71858;PMS5003;59713;50.866;4.324;2022-10-20T07:02:43;17;15;
71858;PMS5003;59713;50.866;4.324;2022-10-20T07:05:43;18;15;
71858;PMS5003;59713;50.866;4.324;2022-10-20T07:08:44;13;11;
71858;PMS5003;59713;50.866;4.324;2022-10-20T07:11:43;12;10;
71858;PMS5003;59713;50.866;4.324;2022-10-20T07:14:45;13;11;
71858;PMS5003;59713;50.866;4.324;2022-10-20T07:17:43;18;12;
71858;PMS5003;59713;50.866;4.324;2022-10-20T07:20:54;14;10;
71858;PMS5003;59713;50.866;4.324;2022-10-20T07:23:43;11;10;
71858;PMS5003;59713;50.866;4.324;2022-10-20T07:26:45;12;11;
71858;PMS5003;59713;50.866;4.324;2022-10-20T07:32:44;14;12;
71858;PMS5003;59713;50.866;4.324;2022-10-20T07:35:45;9;9;
71858;PMS5003;59713;50.866;4.324;2022-10-20T07:38:45;10;10;
71858;PMS5003;59713;50.866;4.324;2022-10-20T07:41:43;13;12;
71858;PMS5003;59713;50.866;4.324;2022-10-20T07:44:43;12;11;
71858;PMS5003;59713;50.866;4.324;2022-10-20T07:47:43;8;8;
71858;PMS5003;59713;50.866;4.324;2022-10-20T07:50:43;10;10;
71858;PMS5003;59713;50.866;4.324;2022-10-20T07:53:44;12;12;
71858;PMS5003;59713;50.866;4.324;2022-10-20T07:56:43;17;11;
71858;PMS5003;59713;50.866;4.324;2022-10-20T07:59:43;16;13;
71858;PMS5003;59713;50.866;4.324;2022-10-20T08:02:43;12;11;
71858;PMS5003;59713;50.866;4.324;2022-10-20T08:08:43;11;11;
71858;PMS5003;59713;50.866;4.324;2022-10-20T08:11:44;14;14;
71858;PMS5003;59713;50.866;4.324;2022-10-20T08:14:43;15;13;
71858;PMS5003;59713;50.866;4.324;2022-10-20T08:17:43;14;11;
71858;PMS5003;59713;50.866;4.324;2022-10-20T08:20:43;18;17;
71858;PMS5003;59713;50.866;4.324;2022-10-20T08:23:44;11;10;
71858;PMS5003;59713;50.866;4.324;2022-10-20T08:26:43;15;12;
71858;PMS5003;59713;50.866;4.324;2022-10-20T08:29:44;17;14;
71858;PMS5003;59713;50.866;4.324;2022-10-20T08:32:43;12;12;
71858;PMS5003;59713;50.866;4.324;2022-10-20T08:35:44;17;13;
71858;PMS5003;59713;50.866;4.324;2022-10-20T08:38:44;13;12;
71858;PMS5003;59713;50.866;4.324;2022-10-20T08:41:44;16;15;
71858;PMS5003;59713;50.866;4.324;2022-10-20T08:44:44;18;16;
71858;PMS5003;59713;50.866;4.324;2022-10-20T08:47:44;15;15;
71858;PMS5003;59713;50.866;4.324;2022-10-20T08:50:45;18;16;
71858;PMS5003;59713;50.866;4.324;2022-10-20T08:59:44;15;14;
71858;PMS5003;59713;50.866;4.324;2022-10-20T09:02:44;16;14;
71858;PMS5003;59713;50.866;4.324;2022-10-20T09:05:44;15;13;
71858;PMS5003;59713;50.866;4.324;2022-10-20T09:08:43;18;16;
71858;PMS5003;59713;50.866;4.324;2022-10-20T09:11:44;22;17;
71858;PMS5003;59713;50.866;4.324;2022-10-20T09:14:44;21;14;
71858;PMS5003;59713;50.866;4.324;2022-10-20T09:18:44;12;12;
71858;PMS5003;59713;50.866;4.324;2022-10-20T09:20:46;17;14;
71858;PMS5003;59713;50.866;4.324;2022-10-20T09:23:45;18;17;
71858;PMS5003;59713;50.866;4.324;2022-10-20T09:26:44;16;14;
71858;PMS5003;59713;50.866;4.324;2022-10-20T09:29:44;13;13;
71858;PMS5003;59713;50.866;4.324;2022-10-20T09:32:44;22;16;
71858;PMS5003;59713;50.866;4.324;2022-10-20T09:35:44;11;11;
71858;PMS5003;59713;50.866;4.324;2022-10-20T09:38:45;15;11;
71858;PMS5003;59713;50.866;4.324;2022-10-20T09:41:44;17;15;
71858;PMS5003;59713;50.866;4.324;2022-10-20T09:44:46;14;13;
71858;PMS5003;59713;50.866;4.324;2022-10-20T09:47:44;20;14;
71858;PMS5003;59713;50.866;4.324;2022-10-20T09:50:45;18;13;
71858;PMS5003;59713;50.866;4.324;2022-10-20T09:56:45;17;16;
71858;PMS5003;59713;50.866;4.324;2022-10-20T09:59:44;13;13;
71858;PMS5003;59713;50.866;4.324;2022-10-20T10:02:44;11;11;
71858;PMS5003;59713;50.866;4.324;2022-10-20T10:05:47;14;14;
71858;PMS5003;59713;50.866;4.324;2022-10-20T10:11:44;15;13;
71858;PMS5003;59713;50.866;4.324;2022-10-20T10:14:47;13;11;
71858;PMS5003;59713;50.866;4.324;2022-10-20T10:17:44;12;11;
71858;PMS5003;59713;50.866;4.324;2022-10-20T10:20:44;16;16;
71858;PMS5003;59713;50.866;4.324;2022-10-20T10:23:52;14;13;
71858;PMS5003;59713;50.866;4.324;2022-10-20T10:26:45;13;12;
71858;PMS5003;59713;50.866;4.324;2022-10-20T10:29:44;20;15;
71858;PMS5003;59713;50.866;4.324;2022-10-20T10:32:44;14;14;
71858;PMS5003;59713;50.866;4.324;2022-10-20T10:38:44;16;13;
71858;PMS5003;59713;50.866;4.324;2022-10-20T10:41:51;13;11;
71858;PMS5003;59713;50.866;4.324;2022-10-20T10:44:46;10;10;
71858;PMS5003;59713;50.866;4.324;2022-10-20T10:47:50;12;10;
71858;PMS5003;59713;50.866;4.324;2022-10-20T10:50:46;15;12;
71858;PMS5003;59713;50.866;4.324;2022-10-20T10:53:58;17;13;
71858;PMS5003;59713;50.866;4.324;2022-10-20T10:56:45;13;12;
71858;PMS5003;59713;50.866;4.324;2022-10-20T11:02:54;11;11;
71858;PMS5003;59713;50.866;4.324;2022-10-20T11:05:49;14;12;
71858;PMS5003;59713;50.866;4.324;2022-10-20T11:08:49;13;13;
71858;PMS5003;59713;50.866;4.324;2022-10-20T11:11:47;14;13;
71858;PMS5003;59713;50.866;4.324;2022-10-20T11:14:45;15;14;
71858;PMS5003;59713;50.866;4.324;2022-10-20T11:17:46;13;11;
71858;PMS5003;59713;50.866;4.324;2022-10-20T11:23:49;15;14;
71858;PMS5003;59713;50.866;4.324;2022-10-20T11:26:44;16;13;
71858;PMS5003;59713;50.866;4.324;2022-10-20T11:29:45;15;12;
71858;PMS5003;59713;50.866;4.324;2022-10-20T11:32:45;12;9;
71858;PMS5003;59713;50.866;4.324;2022-10-20T11:35:45;10;8;
71858;PMS5003;59713;50.866;4.324;2022-10-20T11:38:45;9;9;
71858;PMS5003;59713;50.866;4.324;2022-10-20T11:41:45;11;10;
71858;PMS5003;59713;50.866;4.324;2022-10-20T11:44:46;8;6;
71858;PMS5003;59713;50.866;4.324;2022-10-20T11:47:44;9;7;
71858;PMS5003;59713;50.866;4.324;2022-10-20T11:56:48;7;7;
71858;PMS5003;59713;50.866;4.324;2022-10-20T12:03:03;8;7;
71858;PMS5003;59713;50.866;4.324;2022-10-20T12:14:46;5;5;
71858;PMS5003;59713;50.866;4.324;2022-10-20T12:17:44;12;8;
71858;PMS5003;59713;50.866;4.324;2022-10-20T12:20:47;5;5;
71858;PMS5003;59713;50.866;4.324;2022-10-20T12:23:54;9;7;
71858;PMS5003;59713;50.866;4.324;2022-10-20T12:29:52;10;5;
71858;PMS5003;59713;50.866;4.324;2022-10-20T12:32:53;8;6;
71858;PMS5003;59713;50.866;4.324;2022-10-20T12:38:44;7;6;
71858;PMS5003;59713;50.866;4.324;2022-10-20T12:44:44;8;6;
71858;PMS5003;59713;50.866;4.324;2022-10-20T12:47:45;7;6;
71858;PMS5003;59713;50.866;4.324;2022-10-20T12:50:44;4;4;
71858;PMS5003;59713;50.866;4.324;2022-10-20T12:53:48;7;6;
71858;PMS5003;59713;50.866;4.324;2022-10-20T12:56:46;6;4;
71858;PMS5003;59713;50.866;4.324;2022-10-20T12:59:44;8;7;
71858;PMS5003;59713;50.866;4.324;2022-10-20T13:02:45;5;5;
71858;PMS5003;59713;50.866;4.324;2022-10-20T13:05:45;3;3;
71858;PMS5003;59713;50.866;4.324;2022-10-20T13:08:44;5;3;
71858;PMS5003;59713;50.866;4.324;2022-10-20T13:11:51;6;5;
71858;PMS5003;59713;50.866;4.324;2022-10-20T13:14:47;5;5;
71858;PMS5003;59713;50.866;4.324;2022-10-20T13:17:48;9;6;
71858;PMS5003;59713;50.866;4.324;2022-10-20T13:20:44;5;5;
71858;PMS5003;59713;50.866;4.324;2022-10-20T13:26:46;8;4;
71858;PMS5003;59713;50.866;4.324;2022-10-20T13:29:44;5;4;
71858;PMS5003;59713;50.866;4.324;2022-10-20T13:32:45;10;6;
71858;PMS5003;59713;50.866;4.324;2022-10-20T13:35:46;5;5;
71858;PMS5003;59713;50.866;4.324;2022-10-20T13:38:46;7;6;
71858;PMS5003;59713;50.866;4.324;2022-10-20T13:41:46;6;6;
71858;PMS5003;59713;50.866;4.324;2022-10-20T13:47:45;11;7;
71858;PMS5003;59713;50.866;4.324;2022-10-20T13:50:44;5;5;
71858;PMS5003;59713;50.866;4.324;2022-10-20T13:53:44;4;4;
71858;PMS5003;59713;50.866;4.324;2022-10-20T13:56:45;6;4;
71858;PMS5003;59713;50.866;4.324;2022-10-20T13:59:53;3;3;
71858;PMS5003;59713;50.866;4.324;2022-10-20T14:02:50;5;5;
71858;PMS5003;59713;50.866;4.324;2022-10-20T14:05:44;4;4;
71858;PMS5003;59713;50.866;4.324;2022-10-20T14:08:44;6;6;
71858;PMS5003;59713;50.866;4.324;2022-10-20T14:11:46;5;3;
71858;PMS5003;59713;50.866;4.324;2022-10-20T14:14:44;7;5;
71858;PMS5003;59713;50.866;4.324;2022-10-20T14:17:53;5;5;
71858;PMS5003;59713;50.866;4.324;2022-10-20T14:20:52;4;4;
71858;PMS5003;59713;50.866;4.324;2022-10-20T14:23:44;6;6;
71858;PMS5003;59713;50.866;4.324;2022-10-20T14:26:44;5;5;
71858;PMS5003;59713;50.866;4.324;2022-10-20T14:29:44;6;4;
71858;PMS5003;59713;50.866;4.324;2022-10-20T14:32:44;4;4;
71858;PMS5003;59713;50.866;4.324;2022-10-20T14:35:45;6;5;
71858;PMS5003;59713;50.866;4.324;2022-10-20T14:38:44;8;5;
71858;PMS5003;59713;50.866;4.324;2022-10-20T14:41:44;6;4;
71858;PMS5003;59713;50.866;4.324;2022-10-20T14:44:44;4;2;
71858;PMS5003;59713;50.866;4.324;2022-10-20T14:47:44;6;6;
71858;PMS5003;59713;50.866;4.324;2022-10-20T14:50:44;5;3;
71858;PMS5003;59713;50.866;4.324;2022-10-20T14:53:44;8;7;
71858;PMS5003;59713;50.866;4.324;2022-10-20T14:56:45;6;6;
71858;PMS5003;59713;50.866;4.324;2022-10-20T14:59:48;5;5;
71858;PMS5003;59713;50.866;4.324;2022-10-20T15:05:44;6;5;
71858;PMS5003;59713;50.866;4.324;2022-10-20T15:08:52;5;5;
71858;PMS5003;59713;50.866;4.324;2022-10-20T15:11:44;4;4;
71858;PMS5003;59713;50.866;4.324;2022-10-20T15:17:45;7;5;
71858;PMS5003;59713;50.866;4.324;2022-10-20T15:20:45;3;3;
71858;PMS5003;59713;50.866;4.324;2022-10-20T15:23:44;7;5;
71858;PMS5003;59713;50.866;4.324;2022-10-20T15:26:44;5;5;
71858;PMS5003;59713;50.866;4.324;2022-10-20T15:29:46;6;5;
71858;PMS5003;59713;50.866;4.324;2022-10-20T15:32:44;7;6;
71858;PMS5003;59713;50.866;4.324;2022-10-20T15:35:44;6;5;
71858;PMS5003;59713;50.866;4.324;2022-10-20T15:44:44;9;6;
71858;PMS5003;59713;50.866;4.324;2022-10-20T15:47:44;28;25;
71858;PMS5003;59713;50.866;4.324;2022-10-20T15:51:45;46;38;
71858;PMS5003;59713;50.866;4.324;2022-10-20T15:53:44;21;16;
71858;PMS5003;59713;50.866;4.324;2022-10-20T15:56:44;0;0;
71858;PMS5003;59713;50.866;4.324;2022-10-20T15:59:44;6;5;
71858;PMS5003;59713;50.866;4.324;2022-10-20T16:02:44;5;4;
71858;PMS5003;59713;50.866;4.324;2022-10-20T16:11:47;9;6;
71858;PMS5003;59713;50.866;4.324;2022-10-20T16:17:45;6;6;
71858;PMS5003;59713;50.866;4.324;2022-10-20T16:26:44;7;4;
71858;PMS5003;59713;50.866;4.324;2022-10-20T16:29:44;4;4;
71858;PMS5003;59713;50.866;4.324;2022-10-20T16:32:44;7;5;
71858;PMS5003;59713;50.866;4.324;2022-10-20T16:35:44;8;4;
71858;PMS5003;59713;50.866;4.324;2022-10-20T16:38:44;4;4;
71858;PMS5003;59713;50.866;4.324;2022-10-20T16:44:44;3;3;
71858;PMS5003;59713;50.866;4.324;2022-10-20T16:50:44;6;6;
71858;PMS5003;59713;50.866;4.324;2022-10-20T16:53:45;11;8;
71858;PMS5003;59713;50.866;4.324;2022-10-20T16:56:44;5;5;
71858;PMS5003;59713;50.866;4.324;2022-10-20T16:59:44;10;8;
71858;PMS5003;59713;50.866;4.324;2022-10-20T17:02:44;7;7;
71858;PMS5003;59713;50.866;4.324;2022-10-20T17:05:44;12;8;
71858;PMS5003;59713;50.866;4.324;2022-10-20T17:08:44;5;5;
71858;PMS5003;59713;50.866;4.324;2022-10-20T17:11:44;6;6;
71858;PMS5003;59713;50.866;4.324;2022-10-20T17:17:44;9;7;
71858;PMS5003;59713;50.866;4.324;2022-10-20T17:20:45;10;6;
71858;PMS5003;59713;50.866;4.324;2022-10-20T17:26:44;11;9;
71858;PMS5003;59713;50.866;4.324;2022-10-20T17:32:44;9;9;
71858;PMS5003;59713;50.866;4.324;2022-10-20T17:41:45;11;9;
71858;PMS5003;59713;50.866;4.324;2022-10-20T17:44:44;8;6;
71858;PMS5003;59713;50.866;4.324;2022-10-20T17:47:44;5;5;
71858;PMS5003;59713;50.866;4.324;2022-10-20T17:50:44;10;8;
71858;PMS5003;59713;50.866;4.324;2022-10-20T17:53:45;13;8;
71858;PMS5003;59713;50.866;4.324;2022-10-20T17:56:44;7;7;
71858;PMS5003;59713;50.866;4.324;2022-10-20T17:59:46;8;8;
71858;PMS5003;59713;50.866;4.324;2022-10-20T18:05:44;10;7;
71858;PMS5003;59713;50.866;4.324;2022-10-20T18:08:45;12;11;
71858;PMS5003;59713;50.866;4.324;2022-10-20T18:11:45;28;25;
71858;PMS5003;59713;50.866;4.324;2022-10-20T18:14:44;7;6;
71858;PMS5003;59713;50.866;4.324;2022-10-20T18:17:44;12;9;
71858;PMS5003;59713;50.866;4.324;2022-10-20T18:20:52;11;7;
71858;PMS5003;59713;50.866;4.324;2022-10-20T18:23:45;5;5;
71858;PMS5003;59713;50.866;4.324;2022-10-20T18:26:46;11;9;
71858;PMS5003;59713;50.866;4.324;2022-10-20T18:32:45;8;5;
71858;PMS5003;59713;50.866;4.324;2022-10-20T18:35:44;6;6;
71858;PMS5003;59713;50.866;4.324;2022-10-20T18:41:45;7;7;
71858;PMS5003;59713;50.866;4.324;2022-10-20T18:47:45;9;7;
71858;PMS5003;59713;50.866;4.324;2022-10-20T18:50:51;12;9;
71858;PMS5003;59713;50.866;4.324;2022-10-20T18:53:45;9;7;
71858;PMS5003;59713;50.866;4.324;2022-10-20T18:56:45;10;9;
71858;PMS5003;59713;50.866;4.324;2022-10-20T18:59:45;8;7;
71858;PMS5003;59713;50.866;4.324;2022-10-20T19:02:48;7;7;
71858;PMS5003;59713;50.866;4.324;2022-10-20T19:05:45;10;7;
71858;PMS5003;59713;50.866;4.324;2022-10-20T19:08:44;8;6;
71858;PMS5003;59713;50.866;4.324;2022-10-20T19:11:45;7;7;
71858;PMS5003;59713;50.866;4.324;2022-10-20T19:14:45;12;11;
71858;PMS5003;59713;50.866;4.324;2022-10-20T19:17:45;9;7;
71858;PMS5003;59713;50.866;4.324;2022-10-20T19:20:51;14;10;
71858;PMS5003;59713;50.866;4.324;2022-10-20T19:26:45;11;9;
71858;PMS5003;59713;50.866;4.324;2022-10-20T19:29:45;8;8;
71858;PMS5003;59713;50.866;4.324;2022-10-20T19:32:45;12;12;
71858;PMS5003;59713;50.866;4.324;2022-10-20T19:35:45;14;9;
71858;PMS5003;59713;50.866;4.324;2022-10-20T19:38:45;12;10;
71858;PMS5003;59713;50.866;4.324;2022-10-20T19:41:45;7;7;
71858;PMS5003;59713;50.866;4.324;2022-10-20T19:44:45;10;9;
71858;PMS5003;59713;50.866;4.324;2022-10-20T19:47:46;12;10;
71858;PMS5003;59713;50.866;4.324;2022-10-20T19:50:45;4;4;
71858;PMS5003;59713;50.866;4.324;2022-10-20T19:53:45;8;8;
71858;PMS5003;59713;50.866;4.324;2022-10-20T19:56:45;14;13;
71858;PMS5003;59713;50.866;4.324;2022-10-20T19:59:45;10;7;
71858;PMS5003;59713;50.866;4.324;2022-10-20T20:02:45;9;9;
71858;PMS5003;59713;50.866;4.324;2022-10-20T20:05:45;12;9;
71858;PMS5003;59713;50.866;4.324;2022-10-20T20:08:45;10;9;
71858;PMS5003;59713;50.866;4.324;2022-10-20T20:11:45;11;9;
71858;PMS5003;59713;50.866;4.324;2022-10-20T20:14:45;12;12;
71858;PMS5003;59713;50.866;4.324;2022-10-20T20:17:48;11;8;
71858;PMS5003;59713;50.866;4.324;2022-10-20T20:20:45;7;7;
71858;PMS5003;59713;50.866;4.324;2022-10-20T20:23:46;9;8;
71858;PMS5003;59713;50.866;4.324;2022-10-20T20:29:46;16;14;
71858;PMS5003;59713;50.866;4.324;2022-10-20T20:32:45;12;9;
71858;PMS5003;59713;50.866;4.324;2022-10-20T20:35:45;14;9;
71858;PMS5003;59713;50.866;4.324;2022-10-20T20:38:45;12;9;
71858;PMS5003;59713;50.866;4.324;2022-10-20T20:41:45;9;9;
71858;PMS5003;59713;50.866;4.324;2022-10-20T20:44:45;14;8;
71858;PMS5003;59713;50.866;4.324;2022-10-20T20:47:45;13;10;
71858;PMS5003;59713;50.866;4.324;2022-10-20T20:50:50;9;9;
71858;PMS5003;59713;50.866;4.324;2022-10-20T20:53:45;11;9;
71858;PMS5003;59713;50.866;4.324;2022-10-20T20:56:45;12;9;
71858;PMS5003;59713;50.866;4.324;2022-10-20T20:59:45;9;8;
71858;PMS5003;59713;50.866;4.324;2022-10-20T21:02:45;12;10;
71858;PMS5003;59713;50.866;4.324;2022-10-20T21:05:45;11;10;
71858;PMS5003;59713;50.866;4.324;2022-10-20T21:08:45;9;9;
71858;PMS5003;59713;50.866;4.324;2022-10-20T21:11:45;13;11;
71858;PMS5003;59713;50.866;4.324;2022-10-20T21:14:45;11;11;
71858;PMS5003;59713;50.866;4.324;2022-10-20T21:17:45;15;10;
71858;PMS5003;59713;50.866;4.324;2022-10-20T21:20:45;13;9;
71858;PMS5003;59713;50.866;4.324;2022-10-20T21:26:45;10;8;
71858;PMS5003;59713;50.866;4.324;2022-10-20T21:29:45;12;10;
71858;PMS5003;59713;50.866;4.324;2022-10-20T21:32:45;16;12;
71858;PMS5003;59713;50.866;4.324;2022-10-20T21:35:45;6;2;
71858;PMS5003;59713;50.866;4.324;2022-10-20T21:38:45;10;9;
71858;PMS5003;59713;50.866;4.324;2022-10-20T21:41:45;12;10;
71858;PMS5003;59713;50.866;4.324;2022-10-20T21:44:45;14;11;
71858;PMS5003;59713;50.866;4.324;2022-10-20T21:47:45;13;10;
71858;PMS5003;59713;50.866;4.324;2022-10-20T21:50:45;9;7;
71858;PMS5003;59713;50.866;4.324;2022-10-20T21:53:45;11;7;
71858;PMS5003;59713;50.866;4.324;2022-10-20T21:56:45;13;7;
71858;PMS5003;59713;50.866;4.324;2022-10-20T21:59:45;10;9;
71858;PMS5003;59713;50.866;4.324;2022-10-20T22:02:46;11;9;
71858;PMS5003;59713;50.866;4.324;2022-10-20T22:05:45;12;8;
71858;PMS5003;59713;50.866;4.324;2022-10-20T22:08:46;8;7;
71858;PMS5003;59713;50.866;4.324;2022-10-20T22:11:48;16;12;
71858;PMS5003;59713;50.866;4.324;2022-10-20T22:14:45;8;8;
71858;PMS5003;59713;50.866;4.324;2022-10-20T22:18:45;9;9;
71858;PMS5003;59713;50.866;4.324;2022-10-20T22:20:45;5;5;
71858;PMS5003;59713;50.866;4.324;2022-10-20T22:23:45;8;7;
71858;PMS5003;59713;50.866;4.324;2022-10-20T22:26:45;11;8;
71858;PMS5003;59713;50.866;4.324;2022-10-20T22:29:45;9;8;
71858;PMS5003;59713;50.866;4.324;2022-10-20T22:32:45;12;10;
71858;PMS5003;59713;50.866;4.324;2022-10-20T22:35:45;9;8;
71858;PMS5003;59713;50.866;4.324;2022-10-20T22:38:45;7;6;
71858;PMS5003;59713;50.866;4.324;2022-10-20T22:41:45;12;7;
71858;PMS5003;59713;50.866;4.324;2022-10-20T22:44:45;10;7;